createdAt,value
2022-09-18T00:01:02.016Z,11.37
2022-09-18T00:03:28.698Z,11.47
2022-09-18T00:05:55.062Z,11.41
2022-09-18T00:08:21.532Z,11.44
2022-09-18T00:10:47.982Z,11.50
2022-09-18T00:13:15.028Z,11.38
2022-09-18T00:15:41.862Z,11.46
2022-09-18T00:18:08.985Z,11.50
2022-09-18T00:20:36.915Z,11.54
2022-09-18T00:23:04.041Z,11.49
2022-09-18T00:25:32.071Z,11.47
2022-09-18T00:27:58.523Z,11.43
2022-09-18T00:30:24.940Z,11.39
2022-09-18T00:32:51.287Z,11.48
2022-09-18T00:35:17.722Z,11.59
2022-09-18T00:37:44.143Z,11.54
2022-09-18T00:40:10.957Z,11.53
2022-09-18T00:42:37.474Z,11.58
2022-09-18T00:45:04.411Z,11.54
2022-09-18T00:47:52.276Z,11.57
2022-09-18T00:50:24.442Z,11.48
2022-09-18T00:52:56.782Z,11.45
2022-09-18T00:55:28.725Z,11.40
2022-09-18T00:57:57.664Z,11.46
2022-09-18T01:00:24.637Z,11.55
2022-09-18T01:02:51.256Z,11.46
2022-09-18T01:06:06.312Z,11.53
2022-09-18T01:08:56.553Z,11.40
2022-09-18T01:11:36.908Z,11.52
2022-09-18T01:14:23.485Z,11.58
2022-09-18T01:17:01.781Z,11.61
2022-09-18T01:19:46.414Z,11.66
2022-09-18T01:22:44.926Z,11.56
2022-09-18T01:25:38.544Z,11.66
2022-09-18T01:28:13.893Z,11.66
2022-09-18T01:30:44.706Z,11.65
2022-09-18T01:33:19.627Z,11.48
2022-09-18T01:35:52.756Z,11.57
2022-09-18T01:38:26.840Z,11.53
2022-09-18T01:40:58.829Z,11.47
2022-09-18T01:43:28.628Z,11.55
2022-09-18T01:45:58.473Z,11.55
2022-09-18T01:48:36.912Z,11.61
2022-09-18T01:51:20.467Z,11.71
2022-09-18T01:53:52.865Z,11.65
2022-09-18T01:56:28.060Z,11.63
2022-09-18T01:58:58.948Z,11.62
2022-09-18T02:01:37.878Z,11.69
2022-09-18T02:04:09.989Z,11.73
2022-09-18T02:06:44.416Z,11.74
2022-09-18T02:09:12.835Z,11.66
2022-09-18T02:11:44.887Z,11.62
2022-09-18T02:14:19.510Z,11.45
2022-09-18T02:17:37.776Z,11.48
2022-09-18T02:20:13.725Z,11.56
2022-09-18T02:22:45.349Z,11.49
2022-09-18T02:25:15.132Z,11.51
2022-09-18T02:27:43.450Z,11.47
2022-09-18T02:30:10.895Z,11.55
2022-09-18T02:32:39.124Z,11.56
2022-09-18T02:35:08.673Z,11.53
2022-09-18T02:37:42.532Z,11.53
2022-09-18T02:40:19.117Z,11.54
2022-09-18T02:42:51.138Z,11.54
2022-09-18T02:45:35.923Z,11.48
2022-09-18T02:48:24.991Z,11.59
2022-09-18T02:51:03.884Z,11.57
2022-09-18T02:53:51.897Z,11.55
2022-09-18T02:56:39.197Z,11.43
2022-09-18T02:59:13.021Z,11.47
2022-09-18T03:01:43.800Z,11.38
2022-09-18T03:04:14.309Z,11.49
2022-09-18T03:06:56.219Z,11.42
2022-09-18T03:09:24.128Z,11.44
2022-09-18T03:11:50.845Z,11.31
2022-09-18T03:14:18.848Z,11.38
2022-09-18T03:16:45.188Z,11.45
2022-09-18T03:19:14.201Z,11.44
2022-09-18T03:21:42.358Z,11.40
2022-09-18T03:24:10.826Z,11.52
2022-09-18T03:26:40.800Z,11.52
2022-09-18T03:29:09.006Z,11.43
2022-09-18T03:31:35.837Z,11.34
2022-09-18T03:34:04.081Z,11.48
2022-09-18T03:36:30.488Z,11.44
2022-09-18T03:38:57.999Z,11.52
2022-09-18T03:41:24.853Z,11.49
2022-09-18T03:43:51.992Z,11.43
2022-09-18T03:46:23.325Z,11.42
2022-09-18T03:48:53.185Z,11.43
2022-09-18T03:51:21.665Z,11.32
2022-09-18T03:53:48.993Z,11.45
2022-09-18T03:56:37.131Z,11.48
2022-09-18T03:59:25.400Z,11.35
2022-09-18T04:02:00.651Z,11.40
2022-09-18T04:04:27.622Z,11.39
2022-09-18T04:07:12.556Z,11.38
2022-09-18T04:09:41.553Z,11.29
2022-09-18T04:12:08.645Z,11.36
2022-09-18T04:14:35.481Z,11.39
2022-09-18T04:17:01.937Z,11.36
2022-09-18T04:19:29.739Z,11.36
2022-09-18T04:21:57.337Z,11.33
2022-09-18T04:24:23.795Z,11.32
2022-09-18T04:26:50.169Z,11.39
2022-09-18T04:29:19.745Z,11.41
2022-09-18T04:31:50.029Z,11.48
2022-09-18T04:34:17.552Z,11.35
2022-09-18T04:36:44.085Z,11.43
2022-09-18T04:39:10.584Z,11.30
2022-09-18T04:41:37.043Z,11.39
2022-09-18T04:44:04.892Z,11.50
2022-09-18T04:46:31.420Z,11.53
2022-09-18T04:48:59.621Z,11.42
2022-09-18T04:51:27.698Z,11.39
2022-09-18T04:53:54.204Z,11.44
2022-09-18T04:56:22.274Z,11.27
2022-09-18T04:58:51.112Z,11.21
2022-09-18T05:01:17.822Z,11.25
2022-09-18T05:03:44.368Z,11.24
2022-09-18T05:06:18.001Z,11.33
2022-09-18T05:08:45.310Z,11.31
2022-09-18T05:11:11.741Z,11.22
2022-09-18T05:13:40.025Z,11.25
2022-09-18T05:16:13.487Z,11.27
2022-09-18T05:18:41.755Z,11.32
2022-09-18T05:21:08.140Z,11.25
2022-09-18T05:23:34.686Z,11.24
2022-09-18T05:26:02.290Z,11.25
2022-09-18T05:28:28.677Z,11.35
2022-09-18T05:31:00.664Z,11.41
2022-09-18T05:33:33.373Z,11.39
2022-09-18T05:36:00.131Z,11.31
2022-09-18T05:38:26.888Z,11.31
2022-09-18T05:40:53.799Z,11.37
2022-09-18T05:43:20.163Z,11.39
2022-09-18T05:45:48.878Z,11.33
2022-09-18T05:48:20.702Z,11.40
2022-09-18T05:50:48.307Z,11.44
2022-09-18T05:53:21.365Z,11.47
2022-09-18T05:56:23.260Z,11.40
2022-09-18T05:58:49.710Z,11.47
2022-09-18T06:01:16.855Z,11.47
2022-09-18T06:04:21.443Z,11.43
2022-09-18T06:07:05.281Z,11.37
2022-09-18T06:09:31.937Z,11.45
2022-09-18T06:11:59.224Z,11.47
2022-09-18T06:14:25.707Z,11.53
2022-09-18T06:16:52.118Z,11.49
2022-09-18T06:19:18.536Z,11.48
2022-09-18T06:21:47.526Z,11.52
2022-09-18T06:24:16.816Z,11.56
2022-09-18T06:26:49.721Z,11.51
2022-09-18T06:29:16.089Z,11.59
2022-09-18T06:31:49.919Z,11.59
2022-09-18T06:34:21.969Z,11.53
2022-09-18T06:36:48.777Z,11.54
2022-09-18T06:39:24.649Z,11.52
2022-09-18T06:41:55.424Z,11.55
2022-09-18T06:44:42.316Z,11.52
2022-09-18T06:47:08.868Z,11.46
2022-09-18T06:49:40.439Z,11.52
2022-09-18T06:52:06.912Z,11.53
2022-09-18T06:54:35.749Z,11.60
2022-09-18T06:57:02.463Z,11.59
2022-09-18T06:59:30.823Z,11.54
2022-09-18T07:01:57.567Z,11.48
2022-09-18T07:04:47.449Z,11.54
2022-09-18T07:07:16.309Z,11.54
2022-09-18T07:09:45.774Z,11.48
2022-09-18T07:12:23.584Z,11.47
2022-09-18T07:14:53.822Z,11.54
2022-09-18T07:17:25.662Z,11.58
2022-09-18T07:19:53.710Z,11.59
2022-09-18T07:22:24.008Z,11.60
2022-09-18T07:24:50.742Z,11.59
2022-09-18T07:27:17.175Z,11.65
2022-09-18T07:29:43.845Z,11.64
2022-09-18T07:32:13.763Z,11.62
2022-09-18T07:34:43.652Z,11.66
2022-09-18T07:37:12.453Z,11.73
2022-09-18T07:39:41.157Z,11.77
2022-09-18T07:42:30.374Z,11.77
2022-09-18T07:44:56.716Z,11.78
2022-09-18T07:47:25.195Z,11.76
2022-09-18T07:49:52.289Z,11.82
2022-09-18T07:52:19.204Z,11.81
2022-09-18T07:54:50.883Z,11.86
2022-09-18T07:57:32.657Z,11.88
2022-09-18T08:00:33.198Z,12.02
2022-09-18T08:03:11.806Z,12.18
2022-09-18T08:05:57.558Z,12.25
2022-09-18T08:08:24.376Z,12.34
2022-09-18T08:11:29.072Z,12.38
2022-09-18T08:14:03.412Z,12.46
2022-09-18T08:16:44.452Z,12.47
2022-09-18T08:19:33.734Z,12.36
2022-09-18T08:22:08.053Z,12.37
2022-09-18T08:24:37.401Z,12.38
2022-09-18T08:27:04.420Z,12.34
2022-09-18T08:29:32.112Z,12.30
2022-09-18T08:32:06.523Z,12.25
2022-09-18T08:34:36.225Z,12.19
2022-09-18T08:37:02.666Z,12.15
2022-09-18T08:39:52.201Z,12.07
2022-09-18T08:42:58.103Z,12.13
2022-09-18T08:46:00.595Z,12.17
2022-09-18T08:48:56.529Z,12.17
2022-09-18T08:51:30.680Z,12.11
2022-09-18T08:54:15.203Z,12.11
2022-09-18T08:57:03.547Z,12.09
2022-09-18T08:59:46.109Z,12.05
2022-09-18T09:02:42.619Z,12.05
2022-09-18T09:05:16.692Z,11.96
2022-09-18T09:08:09.876Z,12.01
2022-09-18T09:10:55.873Z,11.99
2022-09-18T09:13:50.256Z,11.95
2022-09-18T09:16:28.490Z,11.92
2022-09-18T09:19:00.135Z,12.00
2022-09-18T09:21:54.869Z,12.04
2022-09-18T09:24:34.421Z,12.03
2022-09-18T09:27:18.132Z,12.06
2022-09-18T09:30:19.859Z,12.08
2022-09-18T09:33:23.268Z,12.13
2022-09-18T09:36:24.075Z,12.15
2022-09-18T09:39:08.367Z,12.15
2022-09-18T09:41:40.304Z,12.16
2022-09-18T09:44:18.806Z,12.19
2022-09-18T09:47:05.203Z,12.18
2022-09-18T09:49:55.942Z,12.14
2022-09-18T09:52:25.150Z,12.05
2022-09-18T09:54:55.396Z,12.08
2022-09-18T09:57:48.977Z,12.20
2022-09-18T10:00:18.262Z,12.19
2022-09-18T10:02:58.369Z,12.18
2022-09-18T10:05:58.099Z,12.18
2022-09-18T10:08:46.915Z,12.24
2022-09-18T10:11:15.822Z,12.29
2022-09-18T10:13:53.579Z,12.37
2022-09-18T10:16:29.471Z,12.46
2022-09-18T10:19:00.072Z,12.49
2022-09-18T10:21:37.029Z,12.48
2022-09-18T10:24:29.897Z,12.62
2022-09-18T10:27:09.558Z,12.52
2022-09-18T10:29:36.289Z,12.52
2022-09-18T10:32:06.758Z,12.59
2022-09-18T10:34:49.419Z,12.68
2022-09-18T10:37:28.429Z,12.68
2022-09-18T10:40:01.336Z,12.65
2022-09-18T10:42:33.879Z,12.66
2022-09-18T10:45:37.930Z,12.77
2022-09-18T10:48:24.140Z,12.76
2022-09-18T10:50:56.295Z,12.71
2022-09-18T10:53:32.767Z,12.74
2022-09-18T10:56:20.016Z,12.78
2022-09-18T10:58:47.973Z,12.63
2022-09-18T11:01:15.172Z,12.59
2022-09-18T11:04:06.521Z,12.54
2022-09-18T11:06:37.116Z,12.62
2022-09-18T11:09:18.425Z,12.59
2022-09-18T11:11:51.212Z,12.59
2022-09-18T11:14:26.047Z,12.62
2022-09-18T11:17:02.195Z,12.51
2022-09-18T11:19:40.598Z,12.50
2022-09-18T11:22:44.188Z,12.56
2022-09-18T11:25:29.361Z,12.65
2022-09-18T11:28:01.870Z,12.79
2022-09-18T11:30:36.131Z,12.90
2022-09-18T11:33:26.190Z,12.93
2022-09-18T11:36:07.747Z,13.00
2022-09-18T11:38:45.901Z,13.12
2022-09-18T11:41:23.069Z,13.08
2022-09-18T11:44:04.585Z,13.16
2022-09-18T11:47:10.882Z,13.13
2022-09-18T11:49:43.392Z,13.08
2022-09-18T11:52:27.743Z,13.02
2022-09-18T11:55:16.923Z,12.99
2022-09-18T11:57:48.648Z,12.96
2022-09-18T12:00:23.077Z,12.93
2022-09-18T12:03:04.761Z,13.03
2022-09-18T12:05:38.688Z,13.05
2022-09-18T12:08:21.739Z,13.15
2022-09-18T12:11:28.152Z,13.07
2022-09-18T12:14:20.563Z,13.04
2022-09-18T12:17:32.328Z,13.06
2022-09-18T12:20:18.396Z,13.13
2022-09-18T12:22:52.234Z,13.15
2022-09-18T12:25:32.293Z,13.15
2022-09-18T12:28:39.840Z,13.18
2022-09-18T12:31:13.312Z,13.21
2022-09-18T12:34:30.064Z,13.16
2022-09-18T12:37:16.261Z,13.18
2022-09-18T12:39:59.769Z,13.18
2022-09-18T12:42:28.911Z,13.15
2022-09-18T12:45:20.459Z,13.12
2022-09-18T12:48:18.657Z,13.09
2022-09-18T12:51:03.590Z,13.01
2022-09-18T12:53:48.842Z,13.02
2022-09-18T12:56:38.334Z,13.06
2022-09-18T12:59:20.072Z,12.94
2022-09-18T13:02:12.772Z,13.08
2022-09-18T13:04:46.571Z,13.05
2022-09-18T13:07:28.348Z,13.08
2022-09-18T13:10:16.217Z,13.06
2022-09-18T13:13:11.927Z,13.06
2022-09-18T13:15:54.194Z,12.98
2022-09-18T13:18:32.450Z,13.02
2022-09-18T13:21:00.592Z,13.03
2022-09-18T13:23:31.160Z,13.00
2022-09-18T13:25:59.177Z,12.99
2022-09-18T13:28:27.766Z,13.00
2022-09-18T13:31:32.440Z,13.02
2022-09-18T13:34:14.319Z,12.95
2022-09-18T13:36:43.992Z,12.94
2022-09-18T13:39:37.629Z,12.83
2022-09-18T13:42:12.608Z,12.77
2022-09-18T13:44:39.069Z,12.84
2022-09-18T13:47:13.040Z,12.82
2022-09-18T13:49:51.108Z,12.78
2022-09-18T13:52:33.958Z,12.88
2022-09-18T13:55:12.499Z,12.92
2022-09-18T13:57:43.535Z,12.90
2022-09-18T14:00:19.035Z,12.92
2022-09-18T14:03:08.832Z,12.75
2022-09-18T14:05:42.586Z,12.69
2022-09-18T14:08:24.248Z,12.75
2022-09-18T14:11:14.965Z,12.77
2022-09-18T14:13:55.302Z,12.61
2022-09-18T14:16:23.737Z,12.60
2022-09-18T14:18:50.159Z,12.49
2022-09-18T14:21:44.159Z,12.59
2022-09-18T14:24:25.154Z,12.60
2022-09-18T14:26:57.212Z,12.57
2022-09-18T14:29:27.915Z,12.59
2022-09-18T14:31:57.690Z,12.63
2022-09-18T14:34:37.930Z,12.66
2022-09-18T14:37:32.856Z,12.54
2022-09-18T14:39:59.736Z,12.52
2022-09-18T14:42:33.816Z,12.50
2022-09-18T14:45:12.386Z,12.53
2022-09-18T14:47:44.349Z,12.49
2022-09-18T14:50:31.763Z,12.48
2022-09-18T14:53:01.219Z,12.49
2022-09-18T14:55:41.912Z,12.52
2022-09-18T14:58:14.677Z,12.50
2022-09-18T15:00:41.612Z,12.49
2022-09-18T15:03:18.484Z,12.50
2022-09-18T15:05:52.224Z,12.47
2022-09-18T15:08:26.482Z,12.45
2022-09-18T15:10:53.336Z,12.46
2022-09-18T15:13:21.731Z,12.40
2022-09-18T15:15:58.321Z,12.46
2022-09-18T15:18:27.529Z,12.47
2022-09-18T15:20:56.946Z,12.47
2022-09-18T15:23:29.021Z,12.46
2022-09-18T15:25:59.616Z,12.41
2022-09-18T15:28:29.544Z,12.45
2022-09-18T15:31:00.863Z,12.42
2022-09-18T15:33:27.811Z,12.41
2022-09-18T15:35:55.746Z,12.44
2022-09-18T15:38:39.368Z,12.41
2022-09-18T15:41:29.364Z,12.38
2022-09-18T15:43:55.755Z,12.42
2022-09-18T15:46:26.887Z,12.30
2022-09-18T15:48:56.168Z,12.21
2022-09-18T15:51:30.122Z,12.21
2022-09-18T15:54:16.696Z,12.17
2022-09-18T15:56:58.747Z,12.16
2022-09-18T15:59:30.903Z,12.09
2022-09-18T16:01:59.160Z,12.11
2022-09-18T16:04:33.391Z,12.09
2022-09-18T16:07:06.536Z,12.05
2022-09-18T16:09:36.787Z,12.06
2022-09-18T16:12:23.132Z,12.10
2022-09-18T16:15:18.684Z,12.04
2022-09-18T16:17:44.978Z,11.95
2022-09-18T16:20:34.366Z,11.90
2022-09-18T16:23:24.469Z,11.90
2022-09-18T16:26:10.793Z,11.85
2022-09-18T16:28:58.736Z,11.79
2022-09-18T16:31:28.926Z,11.75
2022-09-18T16:33:57.222Z,11.84
2022-09-18T16:36:25.603Z,11.80
2022-09-18T16:38:52.037Z,11.80
2022-09-18T16:41:18.391Z,11.83
2022-09-18T16:43:44.746Z,11.80
2022-09-18T16:46:12.743Z,11.90
2022-09-18T16:48:39.999Z,11.78
2022-09-18T16:51:06.349Z,11.70
2022-09-18T16:53:35.035Z,11.76
2022-09-18T16:56:02.984Z,11.78
2022-09-18T16:58:29.972Z,11.87
2022-09-18T17:00:57.301Z,11.85
2022-09-18T17:03:25.919Z,11.68
2022-09-18T17:05:52.287Z,11.73
2022-09-18T17:08:18.646Z,11.86
2022-09-18T17:10:45.407Z,11.77
2022-09-18T17:13:12.659Z,11.71
2022-09-18T17:15:39.059Z,11.73
2022-09-18T17:18:05.556Z,11.72
2022-09-18T17:20:33.028Z,11.73
2022-09-18T17:22:59.490Z,11.70
2022-09-18T17:25:25.958Z,11.60
2022-09-18T17:27:52.721Z,11.61
2022-09-18T17:30:20.164Z,11.61
2022-09-18T17:32:48.347Z,11.64
2022-09-18T17:35:16.129Z,11.68
2022-09-18T17:37:43.711Z,11.65
2022-09-18T17:40:10.814Z,11.65
2022-09-18T17:42:38.131Z,11.56
2022-09-18T17:45:05.697Z,11.58
2022-09-18T17:47:32.068Z,11.65
2022-09-18T17:49:58.478Z,11.49
2022-09-18T17:52:24.856Z,11.60
2022-09-18T17:54:51.306Z,11.58
2022-09-18T17:57:17.619Z,11.64
2022-09-18T17:59:44.452Z,11.56
2022-09-18T18:02:12.648Z,11.51
2022-09-18T18:04:39.058Z,11.43
2022-09-18T18:07:06.158Z,11.40
2022-09-18T18:09:35.405Z,11.33
2022-09-18T18:12:02.000Z,11.17
2022-09-18T18:14:29.018Z,11.20
2022-09-18T18:16:55.344Z,11.00
2022-09-18T18:19:21.819Z,11.10
2022-09-18T18:21:48.208Z,10.79
2022-09-18T18:24:17.102Z,10.96
2022-09-18T18:26:44.547Z,10.94
2022-09-18T18:29:18.028Z,10.94
2022-09-18T18:31:45.167Z,11.00
2022-09-18T18:34:12.464Z,11.07
2022-09-18T18:36:41.302Z,11.03
2022-09-18T18:39:11.908Z,11.04
2022-09-18T18:41:39.474Z,11.00
2022-09-18T18:44:06.302Z,11.00
2022-09-18T18:46:36.106Z,10.94
2022-09-18T18:49:08.978Z,11.10
2022-09-18T18:51:44.499Z,10.99
2022-09-18T18:54:11.604Z,10.86
2022-09-18T18:56:38.828Z,10.89
2022-09-18T18:59:08.722Z,11.00
2022-09-18T19:01:35.541Z,10.92
2022-09-18T19:04:06.466Z,10.98
2022-09-18T19:06:34.323Z,10.71
2022-09-18T19:09:02.666Z,10.77
2022-09-18T19:11:31.697Z,10.79
2022-09-18T19:14:00.034Z,10.91
2022-09-18T19:16:29.878Z,10.72
2022-09-18T19:19:00.527Z,10.56
2022-09-18T19:21:28.294Z,10.77
2022-09-18T19:23:56.835Z,10.78
2022-09-18T19:26:24.819Z,10.81
2022-09-18T19:28:54.129Z,10.49
2022-09-18T19:31:21.637Z,10.59
2022-09-18T19:33:50.866Z,10.67
2022-09-18T19:36:17.538Z,10.68
2022-09-18T19:38:43.904Z,10.51
2022-09-18T19:41:20.408Z,10.52
2022-09-18T19:43:46.902Z,10.61
2022-09-18T19:46:22.907Z,10.65
2022-09-18T19:48:49.895Z,10.62
2022-09-18T19:51:16.269Z,10.55
2022-09-18T19:53:42.760Z,10.57
2022-09-18T19:56:27.473Z,10.64
2022-09-18T19:58:57.723Z,10.37
2022-09-18T20:01:24.056Z,10.50
2022-09-18T20:03:53.880Z,10.58
2022-09-18T20:06:20.374Z,10.72
2022-09-18T20:08:46.836Z,10.80
2022-09-18T20:11:13.176Z,10.77
2022-09-18T20:13:39.633Z,10.75
2022-09-18T20:16:08.447Z,10.73
2022-09-18T20:18:34.886Z,10.76
2022-09-18T20:21:09.038Z,10.65
2022-09-18T20:23:36.277Z,10.68
2022-09-18T20:26:15.258Z,10.75
2022-09-18T20:28:42.284Z,10.78
2022-09-18T20:31:15.068Z,10.70
2022-09-18T20:33:41.830Z,10.60
2022-09-18T20:36:11.314Z,10.65
2022-09-18T20:38:40.052Z,10.66
2022-09-18T20:41:13.364Z,10.64
2022-09-18T20:43:41.773Z,10.53
2022-09-18T20:46:14.019Z,10.41
2022-09-18T20:48:41.279Z,10.51
2022-09-18T20:51:10.684Z,10.40
2022-09-18T20:53:41.342Z,10.30
2022-09-18T20:56:09.814Z,10.17
2022-09-18T20:58:39.044Z,10.24
2022-09-18T21:01:17.983Z,10.24
2022-09-18T21:03:45.930Z,10.31
2022-09-18T21:06:23.352Z,10.17
2022-09-18T21:08:53.224Z,10.24
2022-09-18T21:11:24.313Z,10.07
2022-09-18T21:13:56.850Z,10.05
2022-09-18T21:16:25.163Z,9.92
2022-09-18T21:18:57.673Z,9.93
2022-09-18T21:21:25.792Z,9.97
2022-09-18T21:24:01.152Z,9.99
2022-09-18T21:26:42.850Z,9.69
2022-09-18T21:29:18.666Z,9.73
2022-09-18T21:31:46.974Z,9.64
2022-09-18T21:34:26.530Z,9.39
2022-09-18T21:36:57.557Z,9.60
2022-09-18T21:39:24.627Z,9.61
2022-09-18T21:41:53.147Z,9.75
2022-09-18T21:44:24.540Z,9.68
2022-09-18T21:46:51.923Z,9.59
2022-09-18T21:49:19.089Z,9.56
2022-09-18T21:51:46.756Z,9.63
2022-09-18T21:54:17.516Z,9.68
2022-09-18T21:56:51.708Z,9.65
2022-09-18T21:59:22.140Z,9.60
2022-09-18T22:01:55.102Z,9.45
2022-09-18T22:04:27.600Z,9.54
2022-09-18T22:06:56.970Z,9.40
2022-09-18T22:09:28.788Z,9.48
2022-09-18T22:11:56.256Z,9.64
2022-09-18T22:14:29.376Z,9.56
2022-09-18T22:16:56.316Z,9.51
2022-09-18T22:19:22.941Z,9.54
2022-09-18T22:21:50.786Z,9.49
2022-09-18T22:24:20.272Z,9.41
2022-09-18T22:26:49.464Z,9.46
2022-09-18T22:29:23.773Z,9.37
2022-09-18T22:31:51.248Z,9.51
2022-09-18T22:34:21.075Z,9.49
2022-09-18T22:36:48.062Z,9.26
2022-09-18T22:39:16.680Z,9.25
2022-09-18T22:41:43.912Z,9.30
2022-09-18T22:44:10.924Z,9.29
2022-09-18T22:46:39.294Z,9.24
2022-09-18T22:49:08.633Z,9.28
2022-09-18T22:51:35.460Z,9.08
2022-09-18T22:54:07.496Z,9.27
2022-09-18T22:56:39.457Z,9.36
2022-09-18T22:59:07.075Z,9.46
2022-09-18T23:01:46.201Z,9.26
2022-09-18T23:04:13.356Z,9.29
2022-09-18T23:06:40.280Z,9.42
2022-09-18T23:09:07.442Z,9.43
2022-09-18T23:11:34.755Z,9.50
2022-09-18T23:14:04.316Z,9.32
2022-09-18T23:16:33.065Z,9.53
2022-09-18T23:19:05.455Z,9.46
2022-09-18T23:21:36.120Z,9.41
2022-09-18T23:24:08.871Z,9.44
2022-09-18T23:26:40.751Z,9.45
2022-09-18T23:29:10.644Z,9.48
2022-09-18T23:31:41.075Z,9.53
2022-09-18T23:34:12.390Z,9.73
2022-09-18T23:36:39.978Z,9.65
2022-09-18T23:39:12.419Z,9.52
2022-09-18T23:41:38.969Z,9.59
2022-09-18T23:44:08.204Z,9.57
2022-09-18T23:46:35.150Z,9.63
2022-09-18T23:49:01.735Z,9.66
2022-09-18T23:51:33.560Z,9.59
2022-09-18T23:54:01.587Z,9.60
2022-09-18T23:56:31.113Z,9.61
2022-09-18T23:59:00.852Z,9.69
